createdAt,value
2018-09-26T00:00:05.726Z,1022.05
2018-09-26T00:01:05.735Z,1022.11
2018-09-26T00:02:05.781Z,1022.08
2018-09-26T00:03:05.762Z,1022.11
2018-09-26T00:04:05.802Z,1022.14
2018-09-26T00:05:05.791Z,1022.09
2018-09-26T00:06:05.805Z,1022.07
2018-09-26T00:07:05.835Z,1022.06
2018-09-26T00:08:05.906Z,1022.07
2018-09-26T00:09:05.856Z,1022.07
2018-09-26T00:10:05.871Z,1022.05
2018-09-26T00:11:05.893Z,1022.08
2018-09-26T00:12:05.905Z,1022.11
2018-09-26T00:13:05.935Z,1022.07
2018-09-26T00:14:05.927Z,1022.01
2018-09-26T00:15:05.946Z,1022.00
2018-09-26T00:16:05.967Z,1021.97
2018-09-26T00:17:05.981Z,1021.96
2018-09-26T00:18:06.004Z,1021.91
2018-09-26T00:19:06.012Z,1021.93
2018-09-26T00:20:06.024Z,1021.94
2018-09-26T00:21:06.040Z,1021.94
2018-09-26T00:22:06.082Z,1021.88
2018-09-26T00:23:06.079Z,1021.88
2018-09-26T00:24:06.100Z,1021.84
2018-09-26T00:25:06.109Z,1021.86
2018-09-26T00:26:06.115Z,1021.79
2018-09-26T00:27:06.127Z,1021.79
2018-09-26T00:28:06.144Z,1021.79
2018-09-26T00:29:06.170Z,1021.76
2018-09-26T00:30:06.179Z,1021.71
2018-09-26T00:31:06.194Z,1021.70
2018-09-26T00:32:06.203Z,1021.72
2018-09-26T00:33:06.227Z,1021.70
2018-09-26T00:34:06.240Z,1021.74
2018-09-26T00:35:06.251Z,1021.74
2018-09-26T00:36:06.317Z,1021.73
2018-09-26T00:37:06.287Z,1021.78
2018-09-26T00:38:06.367Z,1021.81
2018-09-26T00:39:06.324Z,1021.83
2018-09-26T00:40:06.328Z,1021.79
2018-09-26T00:41:06.347Z,1021.78
2018-09-26T00:42:06.360Z,1021.80
2018-09-26T00:43:06.385Z,1021.72
2018-09-26T00:44:06.393Z,1021.78
2018-09-26T00:45:06.411Z,1021.77
2018-09-26T00:46:06.423Z,1021.75
2018-09-26T00:47:06.435Z,1021.73
2018-09-26T00:48:06.448Z,1021.73
2018-09-26T00:49:06.468Z,1021.65
2018-09-26T00:50:06.484Z,1021.67
2018-09-26T00:51:06.501Z,1021.59
2018-09-26T00:52:06.535Z,1021.65
2018-09-26T00:53:06.530Z,1021.63
2018-09-26T00:54:06.558Z,1021.58
2018-09-26T00:55:06.559Z,1021.61
2018-09-26T00:56:06.582Z,1021.56
2018-09-26T00:57:06.610Z,1021.59
2018-09-26T00:58:06.601Z,1021.55
2018-09-26T00:59:06.619Z,1021.57
2018-09-26T01:00:06.656Z,1021.56
2018-09-26T01:01:06.667Z,1021.53
2018-09-26T01:02:06.662Z,1021.54
2018-09-26T01:03:06.685Z,1021.62
2018-09-26T01:04:06.695Z,1021.55
2018-09-26T01:05:06.710Z,1021.57
2018-09-26T01:06:06.728Z,1021.51
2018-09-26T01:07:06.761Z,1021.50
2018-09-26T01:08:06.757Z,1021.50
2018-09-26T01:09:06.784Z,1021.47
2018-09-26T01:10:06.786Z,1021.49
2018-09-26T01:11:06.804Z,1021.50
2018-09-26T01:12:06.814Z,1021.48
2018-09-26T01:13:06.834Z,1021.49
2018-09-26T01:14:06.848Z,1021.50
2018-09-26T01:15:06.865Z,1021.50
2018-09-26T01:16:06.882Z,1021.45
2018-09-26T01:17:06.896Z,1021.39
2018-09-26T01:18:06.912Z,1021.37
2018-09-26T01:19:06.926Z,1021.33
2018-09-26T01:20:06.943Z,1021.33
2018-09-26T01:21:06.961Z,1021.38
2018-09-26T01:22:06.971Z,1021.40
2018-09-26T01:23:06.994Z,1021.36
2018-09-26T01:24:06.999Z,1021.36
2018-09-26T01:25:07.023Z,1021.40
2018-09-26T01:26:07.036Z,1021.33
2018-09-26T01:27:07.056Z,1021.35
2018-09-26T01:28:07.066Z,1021.32
2018-09-26T01:29:07.085Z,1021.35
2018-09-26T01:30:07.099Z,1021.39
2018-09-26T01:31:07.135Z,1021.39
2018-09-26T01:32:07.122Z,1021.35
2018-09-26T01:33:07.152Z,1021.32
2018-09-26T01:34:07.158Z,1021.39
2018-09-26T01:35:07.172Z,1021.30
2018-09-26T01:36:07.191Z,1021.30
2018-09-26T01:37:07.198Z,1021.17
2018-09-26T01:38:07.217Z,1021.12
2018-09-26T01:39:07.230Z,1021.06
2018-09-26T01:40:07.248Z,1021.08
2018-09-26T01:41:07.278Z,1021.00
2018-09-26T01:42:07.284Z,1021.03
2018-09-26T01:43:07.321Z,1021.12
2018-09-26T01:44:07.329Z,1021.10
2018-09-26T01:45:07.321Z,1021.11
2018-09-26T01:46:07.357Z,1021.16
2018-09-26T01:47:07.394Z,1021.17
2018-09-26T01:48:07.380Z,1021.13
2018-09-26T01:49:07.400Z,1021.13
2018-09-26T01:50:07.406Z,1021.05
2018-09-26T01:51:07.442Z,1021.10
2018-09-26T01:52:07.430Z,1021.08
2018-09-26T01:53:07.452Z,1021.09
2018-09-26T01:54:07.466Z,1021.08
2018-09-26T01:55:07.475Z,1021.03
2018-09-26T01:56:07.518Z,1021.11
2018-09-26T01:57:07.510Z,1021.13
2018-09-26T01:58:07.529Z,1021.10
2018-09-26T01:59:07.552Z,1021.08
2018-09-26T02:00:07.563Z,1021.11
2018-09-26T02:01:07.566Z,1021.13
2018-09-26T02:02:07.584Z,1021.07
2018-09-26T02:03:07.600Z,1021.08
2018-09-26T02:04:07.619Z,1021.03
2018-09-26T02:05:07.636Z,1021.04
2018-09-26T02:06:07.656Z,1020.99
2018-09-26T02:07:07.669Z,1020.98
2018-09-26T02:08:07.691Z,1021.01
2018-09-26T02:09:07.696Z,1020.97
2018-09-26T02:10:07.712Z,1020.95
2018-09-26T02:11:07.722Z,1020.95
2018-09-26T02:12:07.735Z,1020.95
2018-09-26T02:13:07.757Z,1020.95
2018-09-26T02:14:07.775Z,1020.97
2018-09-26T02:15:07.793Z,1020.98
2018-09-26T02:16:07.809Z,1021.00
2018-09-26T02:17:07.812Z,1020.99
2018-09-26T02:18:07.837Z,1021.02
2018-09-26T02:19:07.850Z,1021.03
2018-09-26T02:20:07.865Z,1020.97
2018-09-26T02:21:07.874Z,1021.00
2018-09-26T02:22:07.901Z,1021.02
2018-09-26T02:23:07.909Z,1021.05
2018-09-26T02:24:07.962Z,1021.03
2018-09-26T02:25:07.937Z,1021.04
2018-09-26T02:26:07.953Z,1021.05
2018-09-26T02:27:07.972Z,1021.09
2018-09-26T02:28:07.983Z,1021.08
2018-09-26T02:29:08.008Z,1021.08
2018-09-26T02:30:08.019Z,1021.04
2018-09-26T02:31:08.035Z,1021.03
2018-09-26T02:32:08.046Z,1021.04
2018-09-26T02:33:08.069Z,1021.01
2018-09-26T02:34:08.081Z,1021.00
2018-09-26T02:35:08.096Z,1020.98
2018-09-26T02:36:08.107Z,1020.91
2018-09-26T02:37:08.128Z,1020.97
2018-09-26T02:38:08.139Z,1020.94
2018-09-26T02:39:08.184Z,1020.93
2018-09-26T02:40:08.164Z,1020.96
2018-09-26T02:41:08.180Z,1020.94
2018-09-26T02:42:08.208Z,1020.90
2018-09-26T02:43:08.212Z,1020.86
2018-09-26T02:44:08.236Z,1020.83
2018-09-26T02:45:08.245Z,1020.81
2018-09-26T02:46:08.259Z,1020.88
2018-09-26T02:47:08.277Z,1020.90
2018-09-26T02:48:08.300Z,1020.94
2018-09-26T02:49:08.318Z,1020.97
2018-09-26T02:50:08.329Z,1021.01
2018-09-26T02:51:08.345Z,1021.02
2018-09-26T02:52:08.362Z,1020.99
2018-09-26T02:53:08.391Z,1021.00
2018-09-26T02:54:08.388Z,1020.98
2018-09-26T02:55:08.409Z,1020.89
2018-09-26T02:56:08.420Z,1020.88
2018-09-26T02:57:08.433Z,1020.86
2018-09-26T02:58:08.465Z,1020.85
2018-09-26T02:59:08.466Z,1020.84
2018-09-26T03:00:08.480Z,1020.82
2018-09-26T03:01:08.494Z,1020.76
2018-09-26T03:02:08.511Z,1020.84
2018-09-26T03:03:08.525Z,1020.86
2018-09-26T03:04:08.543Z,1020.91
2018-09-26T03:05:08.566Z,1020.93
2018-09-26T03:06:08.598Z,1020.92
2018-09-26T03:07:08.600Z,1020.90
2018-09-26T03:08:08.601Z,1020.85
2018-09-26T03:09:08.648Z,1020.82
2018-09-26T03:10:08.648Z,1020.78
2018-09-26T03:11:08.651Z,1020.76
2018-09-26T03:12:08.661Z,1020.76
2018-09-26T03:13:08.676Z,1020.73
2018-09-26T03:14:08.695Z,1020.75
2018-09-26T03:15:08.711Z,1020.77
2018-09-26T03:16:08.729Z,1020.85
2018-09-26T03:17:08.744Z,1020.90
2018-09-26T03:18:08.781Z,1020.87
2018-09-26T03:19:08.771Z,1020.84
2018-09-26T03:20:08.791Z,1020.80
2018-09-26T03:21:08.806Z,1020.72
2018-09-26T03:22:08.826Z,1020.75
2018-09-26T03:23:08.837Z,1020.71
2018-09-26T03:24:08.855Z,1020.71
2018-09-26T03:25:08.891Z,1020.77
2018-09-26T03:26:08.881Z,1020.82
2018-09-26T03:27:08.908Z,1020.86
2018-09-26T03:28:08.915Z,1020.90
2018-09-26T03:29:08.920Z,1020.88
2018-09-26T03:30:08.938Z,1020.88
2018-09-26T03:31:08.957Z,1020.85
2018-09-26T03:32:08.975Z,1020.83
2018-09-26T03:33:09.004Z,1020.81
2018-09-26T03:34:09.008Z,1020.80
2018-09-26T03:35:09.017Z,1020.78
2018-09-26T03:36:09.084Z,1020.75
2018-09-26T03:37:09.049Z,1020.69
2018-09-26T03:38:09.085Z,1020.66
2018-09-26T03:39:09.077Z,1020.61
2018-09-26T03:40:09.093Z,1020.63
2018-09-26T03:41:09.105Z,1020.63
2018-09-26T03:42:09.125Z,1020.63
2018-09-26T03:43:09.136Z,1020.65
2018-09-26T03:44:09.154Z,1020.61
2018-09-26T03:45:09.174Z,1020.67
2018-09-26T03:46:09.185Z,1020.68
2018-09-26T03:47:09.199Z,1020.70
2018-09-26T03:48:09.228Z,1020.72
2018-09-26T03:49:09.234Z,1020.71
2018-09-26T03:50:09.248Z,1020.64
2018-09-26T03:51:09.267Z,1020.67
2018-09-26T03:52:09.276Z,1020.63
2018-09-26T03:53:09.290Z,1020.57
2018-09-26T03:54:09.314Z,1020.56
2018-09-26T03:55:09.323Z,1020.51
2018-09-26T03:56:09.358Z,1020.51
2018-09-26T03:57:09.368Z,1020.48
2018-09-26T03:58:09.372Z,1020.40
2018-09-26T03:59:09.396Z,1020.39
2018-09-26T04:00:09.400Z,1020.33
2018-09-26T04:01:09.413Z,1020.32
2018-09-26T04:02:09.464Z,1020.33
2018-09-26T04:03:09.449Z,1020.29
2018-09-26T04:04:09.465Z,1020.33
2018-09-26T04:05:09.481Z,1020.29
2018-09-26T04:06:09.501Z,1020.26
2018-09-26T04:07:09.521Z,1020.21
2018-09-26T04:08:09.520Z,1020.22
2018-09-26T04:09:09.544Z,1020.22
2018-09-26T04:10:09.556Z,1020.20
2018-09-26T04:11:09.579Z,1020.20
2018-09-26T04:12:09.584Z,1020.24
2018-09-26T04:13:09.671Z,1020.23
2018-09-26T04:14:09.634Z,1020.20
2018-09-26T04:15:09.633Z,1020.19
2018-09-26T04:16:09.659Z,1020.15
2018-09-26T04:17:09.659Z,1020.10
2018-09-26T04:18:09.678Z,1020.12
2018-09-26T04:19:09.690Z,1020.11
2018-09-26T04:20:09.761Z,1020.09
2018-09-26T04:21:09.719Z,1020.12
2018-09-26T04:22:09.740Z,1020.18
2018-09-26T04:23:09.755Z,1020.20
2018-09-26T04:24:09.806Z,1020.17
2018-09-26T04:25:09.787Z,1020.21
2018-09-26T04:26:09.811Z,1020.16
2018-09-26T04:27:09.823Z,1020.16
2018-09-26T04:28:09.836Z,1020.16
2018-09-26T04:29:09.844Z,1020.14
2018-09-26T04:30:09.881Z,1020.13
2018-09-26T04:31:09.878Z,1020.14
2018-09-26T04:32:09.909Z,1020.13
2018-09-26T04:33:10.160Z,1020.15
2018-09-26T04:34:09.924Z,1020.15
2018-09-26T04:35:09.937Z,1020.21
2018-09-26T04:36:09.967Z,1020.21
2018-09-26T04:37:09.966Z,1020.20
2018-09-26T04:38:09.988Z,1020.19
2018-09-26T04:39:09.999Z,1020.20
2018-09-26T04:40:10.021Z,1020.21
2018-09-26T04:41:10.042Z,1020.21
2018-09-26T04:42:10.048Z,1020.18
2018-09-26T04:43:10.225Z,1020.21
2018-09-26T04:44:10.075Z,1020.21
2018-09-26T04:45:10.100Z,1020.21
2018-09-26T04:46:10.102Z,1020.25
2018-09-26T04:47:10.125Z,1020.26
2018-09-26T04:48:10.135Z,1020.21
2018-09-26T04:49:10.172Z,1020.20
2018-09-26T04:50:10.171Z,1020.11
2018-09-26T04:51:10.186Z,1020.12
2018-09-26T04:52:10.194Z,1020.08
2018-09-26T04:53:10.214Z,1020.11
2018-09-26T04:54:10.223Z,1020.08
2018-09-26T04:55:10.251Z,1020.04
2018-09-26T04:56:10.274Z,1020.05
2018-09-26T04:57:10.274Z,1020.03
2018-09-26T04:58:10.323Z,1020.02
2018-09-26T04:59:10.302Z,1020.03
2018-09-26T05:00:10.329Z,1019.99
2018-09-26T05:01:10.331Z,1019.97
2018-09-26T05:02:10.353Z,1020.00
2018-09-26T05:03:10.366Z,1020.02
2018-09-26T05:04:10.380Z,1019.99
2018-09-26T05:05:10.396Z,1019.97
2018-09-26T05:06:10.417Z,1019.98
2018-09-26T05:07:10.433Z,1019.95
2018-09-26T05:08:10.476Z,1019.97
2018-09-26T05:09:10.456Z,1019.99
2018-09-26T05:10:10.472Z,1019.99
2018-09-26T05:11:10.483Z,1020.03
2018-09-26T05:12:10.505Z,1020.05
2018-09-26T05:13:10.523Z,1020.09
2018-09-26T05:14:10.536Z,1020.15
2018-09-26T05:15:10.554Z,1020.17
2018-09-26T05:16:10.562Z,1020.11
2018-09-26T05:17:10.585Z,1020.13
2018-09-26T05:18:10.601Z,1020.12
2018-09-26T05:19:10.613Z,1020.10
2018-09-26T05:20:10.623Z,1020.17
2018-09-26T05:21:10.647Z,1020.17
2018-09-26T05:22:10.681Z,1020.17
2018-09-26T05:23:10.726Z,1020.16
2018-09-26T05:24:10.683Z,1020.15
2018-09-26T05:25:10.730Z,1020.16
2018-09-26T05:26:10.720Z,1020.15
2018-09-26T05:27:10.750Z,1020.09
2018-09-26T05:28:10.753Z,1020.16
2018-09-26T05:29:10.759Z,1020.13
2018-09-26T05:30:10.792Z,1020.14
2018-09-26T05:31:10.789Z,1020.15
2018-09-26T05:32:10.811Z,1020.13
2018-09-26T05:33:10.827Z,1020.13
2018-09-26T05:34:10.851Z,1020.10
2018-09-26T05:35:10.851Z,1020.18
2018-09-26T05:36:10.870Z,1020.16
2018-09-26T05:37:10.889Z,1020.13
2018-09-26T05:38:10.914Z,1020.18
2018-09-26T05:39:10.926Z,1020.15
2018-09-26T05:40:10.935Z,1020.17
2018-09-26T05:41:10.969Z,1020.18
2018-09-26T05:42:10.975Z,1020.21
2018-09-26T05:43:10.985Z,1020.22
2018-09-26T05:44:10.999Z,1020.22
2018-09-26T05:45:11.021Z,1020.25
2018-09-26T05:46:11.024Z,1020.26
2018-09-26T05:47:11.036Z,1020.28
2018-09-26T05:48:11.065Z,1020.28
2018-09-26T05:49:11.090Z,1020.45
2018-09-26T05:50:11.119Z,1020.73
2018-09-26T05:51:11.124Z,1020.83
2018-09-26T05:52:11.113Z,1020.95
2018-09-26T05:53:11.137Z,1021.21
2018-09-26T05:54:11.156Z,1021.20
2018-09-26T05:55:11.172Z,1020.98
2018-09-26T05:56:11.193Z,1020.89
2018-09-26T05:57:11.201Z,1020.72
2018-09-26T05:58:11.215Z,1020.52
2018-09-26T05:59:11.242Z,1020.40
2018-09-26T06:00:11.248Z,1020.35
2018-09-26T06:01:11.273Z,1020.35
2018-09-26T06:02:11.290Z,1020.33
2018-09-26T06:03:11.302Z,1020.32
2018-09-26T06:04:11.319Z,1020.31
2018-09-26T06:05:11.355Z,1020.34
2018-09-26T06:06:11.364Z,1020.31
2018-09-26T06:07:11.390Z,1020.33
2018-09-26T06:08:11.389Z,1020.37
2018-09-26T06:09:11.405Z,1020.38
2018-09-26T06:10:11.424Z,1020.41
2018-09-26T06:11:11.438Z,1020.34
2018-09-26T06:12:11.455Z,1020.31
2018-09-26T06:13:11.475Z,1020.24
2018-09-26T06:14:11.492Z,1020.18
2018-09-26T06:15:11.498Z,1020.21
2018-09-26T06:16:11.521Z,1020.17
2018-09-26T06:17:11.533Z,1020.14
2018-09-26T06:18:11.553Z,1020.16
2018-09-26T06:19:11.571Z,1020.15
2018-09-26T06:20:11.589Z,1020.12
2018-09-26T06:21:11.610Z,1020.11
2018-09-26T06:22:11.621Z,1020.10
2018-09-26T06:23:11.637Z,1020.07
2018-09-26T06:24:11.657Z,1020.04
2018-09-26T06:25:11.675Z,1020.01
2018-09-26T06:26:11.689Z,1019.99
2018-09-26T06:27:11.716Z,1019.94
2018-09-26T06:28:11.718Z,1019.92
2018-09-26T06:29:11.739Z,1019.99
2018-09-26T06:30:11.750Z,1020.03
2018-09-26T06:31:11.781Z,1020.07
2018-09-26T06:32:11.797Z,1020.04
2018-09-26T06:33:11.813Z,1020.08
2018-09-26T06:34:11.819Z,1020.10
2018-09-26T06:35:11.860Z,1020.10
2018-09-26T06:36:11.864Z,1020.10
2018-09-26T06:37:11.974Z,1020.17
2018-09-26T06:38:11.887Z,1020.16
2018-09-26T06:39:11.903Z,1020.16
2018-09-26T06:40:11.928Z,1020.20
2018-09-26T06:41:11.935Z,1020.22
2018-09-26T06:42:11.957Z,1020.22
2018-09-26T06:43:11.976Z,1020.23
2018-09-26T06:44:11.992Z,1020.19
2018-09-26T06:45:12.024Z,1020.13
2018-09-26T06:46:12.020Z,1020.13
2018-09-26T06:47:12.045Z,1020.12
2018-09-26T06:48:12.067Z,1020.11
2018-09-26T06:49:12.071Z,1020.14
2018-09-26T06:50:12.096Z,1020.17
2018-09-26T06:51:12.108Z,1020.23
2018-09-26T06:52:12.133Z,1020.24
2018-09-26T06:53:12.150Z,1020.25
2018-09-26T06:54:12.159Z,1020.31
2018-09-26T06:55:12.194Z,1020.27
2018-09-26T06:56:12.192Z,1020.30
2018-09-26T06:57:12.216Z,1020.38
2018-09-26T06:58:12.224Z,1020.43
2018-09-26T06:59:12.276Z,1020.43
2018-09-26T07:00:12.293Z,1020.50
2018-09-26T07:01:12.278Z,1020.52
2018-09-26T07:02:12.304Z,1020.51
2018-09-26T07:03:12.325Z,1020.57
2018-09-26T07:04:12.329Z,1020.60
2018-09-26T07:05:12.349Z,1020.65
2018-09-26T07:06:12.376Z,1020.67
2018-09-26T07:07:12.398Z,1020.72
2018-09-26T07:08:12.404Z,1020.74
2018-09-26T07:09:12.417Z,1020.92
2018-09-26T07:10:12.443Z,1021.05
2018-09-26T07:11:12.454Z,1021.16
2018-09-26T07:12:12.520Z,1021.15
2018-09-26T07:13:12.491Z,1020.98
2018-09-26T07:14:12.506Z,1020.96
2018-09-26T07:15:12.534Z,1020.85
2018-09-26T07:16:12.541Z,1020.75
2018-09-26T07:17:12.565Z,1020.64
2018-09-26T07:18:12.580Z,1020.67
2018-09-26T07:19:12.601Z,1020.54
2018-09-26T07:20:12.613Z,1020.58
2018-09-26T07:21:12.630Z,1020.57
2018-09-26T07:22:12.646Z,1020.56
2018-09-26T07:23:12.673Z,1020.56
2018-09-26T07:24:12.688Z,1020.62
2018-09-26T07:25:12.699Z,1020.62
2018-09-26T07:26:12.730Z,1020.64
2018-09-26T07:27:12.746Z,1020.55
2018-09-26T07:28:12.770Z,1020.43
2018-09-26T07:29:12.771Z,1020.41
2018-09-26T07:30:12.796Z,1020.38
2018-09-26T07:31:12.813Z,1020.44
2018-09-26T07:32:12.872Z,1020.44
2018-09-26T07:33:12.848Z,1020.46
2018-09-26T07:34:12.870Z,1020.48
2018-09-26T07:35:12.884Z,1020.46
2018-09-26T07:36:12.900Z,1020.38
2018-09-26T07:37:12.930Z,1020.37
2018-09-26T07:38:12.962Z,1020.41
2018-09-26T07:39:12.958Z,1020.50
2018-09-26T07:40:12.973Z,1020.50
2018-09-26T07:41:13.010Z,1020.43
2018-09-26T07:42:13.007Z,1020.40
2018-09-26T07:43:13.035Z,1020.41
2018-09-26T07:44:13.049Z,1020.44
2018-09-26T07:45:13.087Z,1020.46
2018-09-26T07:46:13.087Z,1020.45
2018-09-26T07:47:13.120Z,1020.48
2018-09-26T07:48:13.146Z,1020.51
2018-09-26T07:49:13.160Z,1020.52
2018-09-26T07:50:13.174Z,1020.52
2018-09-26T07:51:13.177Z,1020.57
2018-09-26T07:52:13.261Z,1020.64
2018-09-26T07:53:13.282Z,1020.61
2018-09-26T07:54:13.242Z,1020.69
2018-09-26T07:55:13.252Z,1020.65
2018-09-26T07:56:13.283Z,1020.63
2018-09-26T07:57:13.294Z,1020.67
2018-09-26T07:58:13.306Z,1020.66
2018-09-26T07:59:13.353Z,1020.70
2018-09-26T08:00:13.355Z,1020.73
2018-09-26T08:01:13.361Z,1020.64
2018-09-26T08:02:13.396Z,1020.62
2018-09-26T08:03:13.394Z,1020.63
2018-09-26T08:04:13.412Z,1020.62
2018-09-26T08:05:13.424Z,1020.60
2018-09-26T08:06:13.481Z,1020.61
2018-09-26T08:07:13.485Z,1020.57
2018-09-26T08:08:13.484Z,1020.53
2018-09-26T08:09:13.522Z,1020.56
2018-09-26T08:10:13.519Z,1020.54
2018-09-26T08:11:13.572Z,1020.55
2018-09-26T08:12:13.556Z,1020.60
2018-09-26T08:13:13.588Z,1020.58
2018-09-26T08:14:13.604Z,1020.61
2018-09-26T08:15:13.641Z,1020.60
2018-09-26T08:16:13.636Z,1020.59
2018-09-26T08:17:13.688Z,1020.64
2018-09-26T08:18:13.738Z,1020.65
2018-09-26T08:19:13.694Z,1020.74
2018-09-26T08:20:13.745Z,1020.75
2018-09-26T08:21:13.741Z,1020.76
2018-09-26T08:22:13.752Z,1020.75
2018-09-26T08:23:13.770Z,1020.80
2018-09-26T08:24:13.842Z,1020.83
2018-09-26T08:25:13.828Z,1020.71
2018-09-26T08:26:13.823Z,1020.70
2018-09-26T08:27:13.866Z,1020.71
2018-09-26T08:28:13.851Z,1020.68
2018-09-26T08:29:13.873Z,1020.69
2018-09-26T08:30:13.899Z,1020.69
2018-09-26T08:31:13.932Z,1020.65
2018-09-26T08:32:13.932Z,1020.63
2018-09-26T08:33:13.947Z,1020.64
2018-09-26T08:34:13.963Z,1020.63
2018-09-26T08:35:13.980Z,1020.63
2018-09-26T08:36:14.013Z,1020.61
2018-09-26T08:37:14.023Z,1020.68
2018-09-26T08:38:14.045Z,1020.72
2018-09-26T08:39:14.072Z,1020.72
2018-09-26T08:40:14.076Z,1020.71
2018-09-26T08:41:14.115Z,1020.73
2018-09-26T08:42:14.111Z,1020.68
2018-09-26T08:43:14.150Z,1020.66
2018-09-26T08:44:14.153Z,1020.68
2018-09-26T08:45:14.174Z,1020.62
2018-09-26T08:46:14.196Z,1020.63
2018-09-26T08:47:14.203Z,1020.52
2018-09-26T08:48:14.229Z,1020.53
2018-09-26T08:49:14.242Z,1020.50
2018-09-26T08:50:14.262Z,1020.49
2018-09-26T08:51:14.287Z,1020.46
2018-09-26T08:52:14.322Z,1020.46
2018-09-26T08:53:14.327Z,1020.46
2018-09-26T08:54:14.339Z,1020.43
2018-09-26T08:55:14.371Z,1020.42
2018-09-26T08:56:14.398Z,1020.41
2018-09-26T08:57:14.410Z,1020.42
2018-09-26T08:58:14.414Z,1020.37
2018-09-26T08:59:14.481Z,1020.38
2018-09-26T09:00:14.454Z,1020.39
2018-09-26T09:01:14.491Z,1020.40
2018-09-26T09:02:14.487Z,1020.42
2018-09-26T09:03:14.514Z,1020.43
2018-09-26T09:04:14.524Z,1020.44
2018-09-26T09:05:14.548Z,1020.43
2018-09-26T09:06:14.601Z,1020.43
2018-09-26T09:07:14.590Z,1020.46
2018-09-26T09:08:14.631Z,1020.50
2018-09-26T09:09:14.631Z,1020.50
2018-09-26T09:10:14.641Z,1020.48
2018-09-26T09:11:14.662Z,1020.49
2018-09-26T09:12:14.676Z,1020.46
2018-09-26T09:13:14.693Z,1020.46
2018-09-26T09:14:14.736Z,1020.44
2018-09-26T09:15:14.733Z,1020.44
2018-09-26T09:16:14.761Z,1020.37
2018-09-26T09:17:14.781Z,1020.33
2018-09-26T09:18:14.796Z,1020.34
2018-09-26T09:19:14.807Z,1020.37
2018-09-26T09:20:14.833Z,1020.31
2018-09-26T09:21:14.855Z,1020.33
2018-09-26T09:22:14.872Z,1020.38
2018-09-26T09:23:14.892Z,1020.40
2018-09-26T09:24:14.918Z,1020.39
2018-09-26T09:25:14.925Z,1020.38
2018-09-26T09:26:15.008Z,1020.37
2018-09-26T09:27:15.049Z,1020.34
2018-09-26T09:28:14.986Z,1020.36
2018-09-26T09:29:15.002Z,1020.31
2018-09-26T09:30:15.026Z,1020.29
2018-09-26T09:31:15.044Z,1020.26
2018-09-26T09:32:15.116Z,1020.33
2018-09-26T09:33:15.091Z,1020.32
2018-09-26T09:34:15.106Z,1020.27
2018-09-26T09:35:15.119Z,1020.25
2018-09-26T09:36:15.142Z,1020.25
2018-09-26T09:37:15.161Z,1020.22
2018-09-26T09:38:15.188Z,1020.20
2018-09-26T09:39:15.201Z,1020.19
2018-09-26T09:40:15.231Z,1020.15
2018-09-26T09:41:15.252Z,1020.14
2018-09-26T09:42:15.264Z,1020.10
2018-09-26T09:43:15.280Z,1020.02
2018-09-26T09:44:15.299Z,1020.03
2018-09-26T09:45:15.320Z,1020.05
2018-09-26T09:46:15.343Z,1019.99
2018-09-26T09:47:15.363Z,1019.97
2018-09-26T09:48:15.378Z,1019.96
2018-09-26T09:49:15.404Z,1019.98
2018-09-26T09:50:15.473Z,1019.91
2018-09-26T09:51:15.444Z,1019.98
2018-09-26T09:52:15.456Z,1019.95
2018-09-26T09:53:15.487Z,1019.96
2018-09-26T09:54:15.512Z,1019.97
2018-09-26T09:55:15.531Z,1019.92
2018-09-26T09:56:15.589Z,1019.96
2018-09-26T09:57:15.553Z,1019.93
2018-09-26T09:58:15.574Z,1019.92
2018-09-26T09:59:15.594Z,1019.90
2018-09-26T10:00:15.624Z,1019.92
2018-09-26T10:01:15.634Z,1019.94
2018-09-26T10:02:15.706Z,1019.88
2018-09-26T10:03:15.712Z,1019.89
2018-09-26T10:04:15.696Z,1019.89
2018-09-26T10:05:15.721Z,1019.87
2018-09-26T10:06:15.739Z,1019.90
2018-09-26T10:07:15.790Z,1019.89
2018-09-26T10:08:15.864Z,1019.87
2018-09-26T10:09:15.811Z,1019.88
2018-09-26T10:10:15.819Z,1019.88
2018-09-26T10:11:15.842Z,1019.86
2018-09-26T10:12:15.878Z,1019.83
2018-09-26T10:13:15.878Z,1019.88
2018-09-26T10:14:15.969Z,1019.89
2018-09-26T10:15:15.911Z,1019.88
2018-09-26T10:16:15.952Z,1019.90
2018-09-26T10:17:15.959Z,1019.85
2018-09-26T10:18:15.973Z,1019.85
2018-09-26T10:19:16.002Z,1019.85
2018-09-26T10:20:16.083Z,1019.83
2018-09-26T10:21:16.035Z,1019.77
2018-09-26T10:22:16.064Z,1019.78
2018-09-26T10:23:16.083Z,1019.74
2018-09-26T10:24:16.100Z,1019.77
2018-09-26T10:25:16.158Z,1019.74
2018-09-26T10:26:16.233Z,1019.77
2018-09-26T10:27:16.154Z,1019.77
2018-09-26T10:28:16.174Z,1019.68
2018-09-26T10:29:16.191Z,1019.66
2018-09-26T10:30:16.211Z,1019.68
2018-09-26T10:31:16.232Z,1019.65
2018-09-26T10:32:16.360Z,1019.65
2018-09-26T10:33:16.280Z,1019.66
2018-09-26T10:34:16.296Z,1019.63
2018-09-26T10:35:16.321Z,1019.60
2018-09-26T10:36:16.340Z,1019.58
2018-09-26T10:37:16.361Z,1019.53
2018-09-26T10:38:16.433Z,1019.54
2018-09-26T10:39:16.397Z,1019.45
2018-09-26T10:40:16.425Z,1019.46
2018-09-26T10:41:16.439Z,1019.43
2018-09-26T10:42:16.453Z,1019.41
2018-09-26T10:43:16.478Z,1019.34
2018-09-26T10:44:16.535Z,1019.30
2018-09-26T10:45:16.513Z,1019.35
2018-09-26T10:46:16.533Z,1019.35
2018-09-26T10:47:16.555Z,1019.32
2018-09-26T10:48:16.578Z,1019.31
2018-09-26T10:49:16.600Z,1019.30
2018-09-26T10:50:16.625Z,1019.28
2018-09-26T10:51:16.632Z,1019.24
2018-09-26T10:52:16.656Z,1019.24
2018-09-26T10:53:16.672Z,1019.22
2018-09-26T10:54:16.695Z,1019.18
2018-09-26T10:55:16.718Z,1019.20
2018-09-26T10:56:16.789Z,1019.20
2018-09-26T10:57:16.760Z,1019.14
2018-09-26T10:58:16.785Z,1019.14
2018-09-26T10:59:16.793Z,1019.12
2018-09-26T11:00:16.816Z,1019.09
2018-09-26T11:01:16.838Z,1019.08
2018-09-26T11:02:16.894Z,1019.03
2018-09-26T11:03:16.873Z,1019.05
2018-09-26T11:04:16.906Z,1019.08
2018-09-26T11:05:16.920Z,1019.08
2018-09-26T11:06:16.933Z,1019.05
2018-09-26T11:07:16.955Z,1019.12
2018-09-26T11:08:16.997Z,1019.09
2018-09-26T11:09:17.012Z,1019.10
2018-09-26T11:10:17.100Z,1019.00
2018-09-26T11:11:17.047Z,1019.00
2018-09-26T11:12:17.063Z,1018.98
2018-09-26T11:13:17.087Z,1018.98
2018-09-26T11:14:17.130Z,1018.91
2018-09-26T11:15:17.187Z,1018.90
2018-09-26T11:16:17.209Z,1018.91
2018-09-26T11:17:17.170Z,1018.83
2018-09-26T11:18:17.185Z,1018.81
2018-09-26T11:19:17.222Z,1018.80
2018-09-26T11:20:17.281Z,1018.79
2018-09-26T11:21:17.283Z,1018.75
2018-09-26T11:22:17.315Z,1018.76
2018-09-26T11:23:17.290Z,1018.74
2018-09-26T11:24:17.311Z,1018.76
2018-09-26T11:25:17.321Z,1018.72
2018-09-26T11:26:17.497Z,1018.73
2018-09-26T11:27:17.380Z,1018.75
2018-09-26T11:28:17.441Z,1018.70
2018-09-26T11:29:17.423Z,1018.70
2018-09-26T11:30:17.431Z,1018.66
2018-09-26T11:31:17.452Z,1018.66
2018-09-26T11:32:17.545Z,1018.66
2018-09-26T11:33:17.519Z,1018.63
2018-09-26T11:34:17.561Z,1018.64
2018-09-26T11:35:17.537Z,1018.61
2018-09-26T11:36:17.547Z,1018.59
2018-09-26T11:37:17.567Z,1018.55
2018-09-26T11:38:17.692Z,1018.56
2018-09-26T11:39:17.617Z,1018.55
2018-09-26T11:40:17.687Z,1018.54
2018-09-26T11:41:17.656Z,1018.54
2018-09-26T11:42:17.670Z,1018.59
2018-09-26T11:43:17.699Z,1018.62
2018-09-26T11:44:17.725Z,1018.58
2018-09-26T11:45:17.735Z,1018.60
2018-09-26T11:46:17.780Z,1018.58
2018-09-26T11:47:17.778Z,1018.55
2018-09-26T11:48:17.802Z,1018.55
2018-09-26T11:49:17.815Z,1018.51
2018-09-26T11:50:17.846Z,1018.49
2018-09-26T11:51:17.862Z,1018.53
2018-09-26T11:52:17.905Z,1018.51
2018-09-26T11:53:17.903Z,1018.49
2018-09-26T11:54:17.917Z,1018.47
2018-09-26T11:55:17.942Z,1018.44
2018-09-26T11:56:18.017Z,1018.42
2018-09-26T11:57:17.982Z,1018.37
2018-09-26T11:58:18.047Z,1018.37
2018-09-26T11:59:18.022Z,1018.39
2018-09-26T12:00:18.038Z,1018.39
2018-09-26T12:01:18.074Z,1018.41
2018-09-26T12:02:18.150Z,1018.40
2018-09-26T12:03:18.105Z,1018.40
2018-09-26T12:04:18.172Z,1018.35
2018-09-26T12:05:18.149Z,1018.38